Time;durP1;ratioP1;P1;durP2;ratioP2;P2;SDS_P1;SDS_P2;PMS_P1;PMS_P2;Temp;Humidity;BMP_temperature;BMP_pressure;BME280_temperature;BME280_humidity;BME280_pressure;Samples;Min_cycle;Max_cycle;Signal;HPM_P1;HPM_P2
2021/08/27 00:01:08;;;;;;;7.53;3.00;;;;;;;;;;6187095;28;20199;-78
2021/08/27 00:04:09;;;;;;;8.63;3.20;;;;;;;;;;6185022;28;20046;-80
2021/08/27 00:07:11;;;;;;;5.93;3.17;;;;;;;;;;6177099;28;20694;-79
2021/08/27 00:10:13;;;;;;;6.28;3.53;;;;;;;;;;6188519;28;20457;-80
2021/08/27 00:13:14;;;;;;;5.65;3.22;;;;;;;;;;6180693;28;20058;-80
2021/08/27 00:16:16;;;;;;;8.27;3.30;;;;;;;;;;6168262;28;20072;-83
2021/08/27 00:19:17;;;;;;;7.38;3.08;;;;;;;;;;6168154;28;20055;-79
2021/08/27 00:22:19;;;;;;;5.90;3.03;;;;;;;;;;6190434;28;20046;-79
2021/08/27 00:25:21;;;;;;;6.15;3.13;;;;;;;;;;6192003;28;20046;-80
2021/08/27 00:28:22;;;;;;;8.75;2.92;;;;;;;;;;6181576;28;20043;-82
2021/08/27 00:31:24;;;;;;;6.93;2.90;;;;;;;;;;6166796;28;20039;-79
2021/08/27 00:34:26;;;;;;;5.68;2.50;;;;;;;;;;6150520;28;20049;-81
2021/08/27 00:37:27;;;;;;;3.65;2.30;;;;;;;;;;6188077;28;20054;-81
2021/08/27 00:40:29;;;;;;;4.60;2.35;;;;;;;;;;6188491;28;20046;-79
2021/08/27 00:43:31;;;;;;;8.93;2.85;;;;;;;;;;6171716;28;20085;-80
2021/08/27 00:46:32;;;;;;;7.32;2.72;;;;;;;;;;6170865;28;20042;-80
2021/08/27 00:49:34;;;;;;;8.75;2.50;;;;;;;;;;6182878;28;20035;-81
2021/08/27 00:52:37;;;;;;;7.47;3.55;;;;;;;;;;6165921;28;20049;-78
2021/08/27 00:55:39;;;;;;;;;;;;;;;;;;6165253;28;20043;-81
2021/08/27 00:58:40;;;;;;;6.72;3.00;;;;;;;;;;6162196;28;19922;-82
2021/08/27 01:01:42;;;;;;;6.13;3.05;;;;;;;;;;6163743;28;20061;-81
2021/08/27 01:04:46;;;;;;;7.43;2.80;;;;;;;;;;6169901;28;20054;-81
2021/08/27 01:07:49;;;;;;;4.15;2.75;;;;;;;;;;6187758;28;20389;-80
2021/08/27 01:11:00;;;;;;;9.77;2.60;;;;;;;;;;6186567;28;20054;-80
2021/08/27 01:14:04;;;;;;;8.63;2.70;;;;;;;;;;6177668;28;20050;-80
2021/08/27 01:17:18;;;;;;;6.38;2.30;;;;;;;;;;6162602;28;20043;-79
2021/08/27 01:20:35;;;;;;;7.47;2.80;;;;;;;;;;6148915;28;20054;-81
2021/08/27 01:23:41;;;;;;;9.73;2.55;;;;;;;;;;6161434;28;20054;-79
2021/08/27 01:26:51;;;;;;;8.00;2.20;;;;;;;;;;6163975;28;20043;-79
2021/08/27 01:30:09;;;;;;;2.83;1.92;;;;;;;;;;6165007;28;20043;-79
2021/08/27 01:33:16;;;;;;;8.52;2.13;;;;;;;;;;6164376;28;20047;-78
2021/08/27 01:36:19;;;;;;;6.85;2.45;;;;;;;;;;6185531;28;20034;-79
2021/08/27 01:39:25;;;;;;;3.95;2.30;;;;;;;;;;6183720;28;20040;-83
2021/08/27 01:42:27;;;;;;;7.05;2.13;;;;;;;;;;6193437;28;20606;-79
2021/08/27 01:45:30;;;;;;;3.88;1.98;;;;;;;;;;6177682;28;20515;-81
2021/08/27 01:48:33;;;;;;;8.87;2.30;;;;;;;;;;6190460;28;20057;-80
2021/08/27 01:51:37;;;;;;;6.53;2.30;;;;;;;;;;6186702;28;20042;-79
2021/08/27 01:54:39;;;;;;;;;;;;;;;;;;6174010;28;20048;-79
2021/08/27 01:57:42;;;;;;;6.45;2.60;;;;;;;;;;6190098;28;19944;-79
2021/08/27 02:00:44;;;;;;;;;;;;;;;;;;6177298;28;20113;-82
2021/08/27 02:03:47;;;;;;;6.15;2.40;;;;;;;;;;6166138;28;19922;-79
2021/08/27 02:06:49;;;;;;;5.28;2.53;;;;;;;;;;6162510;28;20050;-79
2021/08/27 02:09:54;;;;;;;6.70;2.30;;;;;;;;;;6179617;28;20042;-79
2021/08/27 02:12:56;;;;;;;5.95;3.63;;;;;;;;;;6179608;28;20531;-78
2021/08/27 02:15:59;;;;;;;2.95;2.60;;;;;;;;;;6187358;28;20496;-79
2021/08/27 02:19:02;;;;;;;8.27;3.13;;;;;;;;;;6186343;28;20399;-78
2021/08/27 02:22:06;;;;;;;;;;;;;;;;;;6179377;28;20039;-78
2021/08/27 02:25:14;;;;;;;7.38;3.03;;;;;;;;;;6179864;28;19929;-81
2021/08/27 02:28:18;;;;;;;7.68;2.95;;;;;;;;;;6163402;28;20492;-81
2021/08/27 02:31:19;;;;;;;4.68;2.47;;;;;;;;;;6164223;28;20043;-81
2021/08/27 02:34:22;;;;;;;7.50;3.00;;;;;;;;;;6164179;28;20046;-79
2021/08/27 02:37:25;;;;;;;8.93;3.28;;;;;;;;;;6164615;28;20039;-80
2021/08/27 02:40:27;;;;;;;7.47;2.80;;;;;;;;;;6165074;28;20046;-80
2021/08/27 02:43:28;;;;;;;6.55;3.10;;;;;;;;;;6164823;28;20126;-79
2021/08/27 02:46:30;;;;;;;6.03;3.20;;;;;;;;;;6171437;28;20050;-78
2021/08/27 02:49:32;;;;;;;5.93;3.00;;;;;;;;;;6186964;28;20038;-79
2021/08/27 02:52:47;;;;;;;6.72;2.92;;;;;;;;;;6188909;28;20069;-79
2021/08/27 02:56:01;;;;;;;6.60;3.05;;;;;;;;;;6160759;28;20531;-81
2021/08/27 02:59:10;;;;;;;9.63;3.40;;;;;;;;;;6177084;28;20077;-80
2021/08/27 03:02:15;;;;;;;8.05;3.35;;;;;;;;;;6160499;28;20047;-78
2021/08/27 03:05:25;;;;;;;7.55;3.42;;;;;;;;;;6164009;28;20460;-78
2021/08/27 03:08:29;;;;;;;6.68;3.53;;;;;;;;;;6161468;28;20096;-79
2021/08/27 03:11:39;;;;;;;9.18;3.60;;;;;;;;;;6163183;28;20050;-78
2021/08/27 03:14:49;;;;;;;11.00;3.47;;;;;;;;;;6163007;28;20094;-78
2021/08/27 03:17:53;;;;;;;6.68;3.40;;;;;;;;;;6162726;28;20051;-79
2021/08/27 03:21:21;;;;;;;8.63;3.90;;;;;;;;;;6184279;28;20045;-81
2021/08/27 03:24:30;;;;;;;8.88;4.03;;;;;;;;;;6185267;28;20052;-80
2021/08/27 03:27:35;;;;;;;7.72;3.95;;;;;;;;;;6185351;28;20443;-80
2021/08/27 03:30:38;;;;;;;6.45;3.80;;;;;;;;;;6169751;28;20053;-79
2021/08/27 03:33:40;;;;;;;9.35;3.45;;;;;;;;;;6163476;28;20043;-79
2021/08/27 03:36:43;;;;;;;11.75;4.13;;;;;;;;;;6162483;28;20061;-79
2021/08/27 03:39:45;;;;;;;9.90;4.03;;;;;;;;;;6160979;28;20436;-78
2021/08/27 03:42:47;;;;;;;6.38;4.18;;;;;;;;;;6163388;28;20047;-78
2021/08/27 03:45:51;;;;;;;10.88;4.70;;;;;;;;;;6178046;28;20062;-78
2021/08/27 03:48:54;;;;;;;10.90;4.75;;;;;;;;;;6165684;28;20049;-81
2021/08/27 03:51:56;;;;;;;10.80;4.73;;;;;;;;;;6168499;28;20042;-79
2021/08/27 03:55:00;;;;;;;16.67;5.87;;;;;;;;;;6180395;28;20454;-78
2021/08/27 03:58:03;;;;;;;10.27;5.20;;;;;;;;;;6177788;28;20631;-79
2021/08/27 04:01:13;;;;;;;12.15;6.00;;;;;;;;;;6196387;28;20046;-80
2021/08/27 04:04:21;;;;;;;12.27;5.85;;;;;;;;;;6165248;28;20057;-79
2021/08/27 04:07:23;;;;;;;10.45;5.47;;;;;;;;;;6165383;28;20048;-79
2021/08/27 04:10:25;;;;;;;9.57;5.60;;;;;;;;;;6166887;28;20069;-79
2021/08/27 04:13:26;;;;;;;11.93;5.80;;;;;;;;;;6181591;28;20050;-80
2021/08/27 04:16:28;;;;;;;15.18;5.75;;;;;;;;;;6165371;28;20043;-81
2021/08/27 04:19:29;;;;;;;10.25;5.40;;;;;;;;;;6169482;28;20034;-79
2021/08/27 04:22:31;;;;;;;12.40;6.65;;;;;;;;;;6189738;28;20046;-79
2021/08/27 04:25:33;;;;;;;12.65;6.22;;;;;;;;;;6188062;28;20053;-79
2021/08/27 04:28:34;;;;;;;12.00;6.03;;;;;;;;;;6175325;28;20051;-79
2021/08/27 04:31:36;;;;;;;12.82;5.80;;;;;;;;;;6181190;28;20042;-79
2021/08/27 04:34:38;;;;;;;10.65;5.47;;;;;;;;;;6162330;28;20046;-82
2021/08/27 04:37:39;;;;;;;10.70;5.40;;;;;;;;;;6163987;28;20046;-79
2021/08/27 04:40:41;;;;;;;10.38;5.30;;;;;;;;;;6164219;28;20823;-79
2021/08/27 04:43:43;;;;;;;11.05;5.95;;;;;;;;;;6166559;28;20046;-79
2021/08/27 04:46:44;;;;;;;12.82;5.63;;;;;;;;;;6175949;28;20064;-79
2021/08/27 04:49:46;;;;;;;11.45;5.80;;;;;;;;;;6189225;28;20054;-81
2021/08/27 04:52:47;;;;;;;10.60;5.25;;;;;;;;;;6188692;28;20062;-79
2021/08/27 04:55:49;;;;;;;13.60;4.95;;;;;;;;;;6188792;28;20050;-79
2021/08/27 04:58:52;;;;;;;7.65;4.82;;;;;;;;;;6182375;28;20050;-79
2021/08/27 05:01:53;;;;;;;7.60;4.90;;;;;;;;;;6164080;28;20507;-79
2021/08/27 05:04:56;;;;;;;10.32;5.28;;;;;;;;;;6165847;28;20469;-79
2021/08/27 05:07:57;;;;;;;8.10;4.72;;;;;;;;;;6180045;28;20484;-80
2021/08/27 05:10:59;;;;;;;10.07;4.25;;;;;;;;;;6165992;28;20057;-79
2021/08/27 05:14:01;;;;;;;12.63;4.93;;;;;;;;;;6178860;28;20100;-79
2021/08/27 05:17:02;;;;;;;8.35;4.93;;;;;;;;;;6164237;28;20050;-79
2021/08/27 05:20:06;;;;;;;10.82;4.88;;;;;;;;;;6172724;28;20492;-81
2021/08/27 05:23:07;;;;;;;;;;;;;;;;;;6190366;28;20050;-79
2021/08/27 05:26:09;;;;;;;10.73;4.85;;;;;;;;;;6187763;28;19937;-79
2021/08/27 05:29:11;;;;;;;13.32;4.38;;;;;;;;;;6177440;28;20050;-79
2021/08/27 05:32:12;;;;;;;9.27;4.75;;;;;;;;;;6147189;28;20073;-80
2021/08/27 05:35:15;;;;;;;8.40;4.90;;;;;;;;;;6174539;28;20412;-81
2021/08/27 05:38:16;;;;;;;7.93;5.10;;;;;;;;;;6163832;28;20052;-79
2021/08/27 05:41:18;;;;;;;6.85;4.38;;;;;;;;;;6188731;28;20050;-79
2021/08/27 05:44:19;;;;;;;11.00;4.65;;;;;;;;;;6187814;28;20046;-80
2021/08/27 05:47:21;;;;;;;9.63;4.97;;;;;;;;;;6189311;28;20508;-79
2021/08/27 05:50:23;;;;;;;7.13;4.70;;;;;;;;;;6177195;28;20042;-80
2021/08/27 05:53:24;;;;;;;10.25;4.78;;;;;;;;;;6169261;28;20039;-79
2021/08/27 05:56:26;;;;;;;7.88;4.35;;;;;;;;;;6176569;28;20049;-80
2021/08/27 05:59:28;;;;;;;10.90;4.60;;;;;;;;;;6166591;28;20046;-82
2021/08/27 06:02:29;;;;;;;7.97;4.63;;;;;;;;;;6168732;28;20042;-79
2021/08/27 06:05:31;;;;;;;15.27;6.57;;;;;;;;;;6170549;28;20043;-79
2021/08/27 06:08:34;;;;;;;13.48;5.43;;;;;;;;;;6171129;28;20047;-82
2021/08/27 06:11:37;;;;;;;13.73;4.75;;;;;;;;;;6170830;28;20038;-81
2021/08/27 06:14:39;;;;;;;10.48;5.18;;;;;;;;;;6180684;28;20047;-79
2021/08/27 06:17:41;;;;;;;13.13;4.90;;;;;;;;;;6188558;28;20046;-80
2021/08/27 06:20:48;;;;;;;9.43;5.13;;;;;;;;;;6173251;28;20050;-81
2021/08/27 06:23:52;;;;;;;12.07;5.22;;;;;;;;;;6169309;28;20056;-80
2021/08/27 06:26:53;;;;;;;10.23;5.15;;;;;;;;;;6189348;28;20054;-80
2021/08/27 06:29:55;;;;;;;8.95;5.07;;;;;;;;;;6182930;28;20042;-78
2021/08/27 06:32:57;;;;;;;9.68;5.50;;;;;;;;;;6187273;28;20502;-79
2021/08/27 06:35:58;;;;;;;9.82;5.47;;;;;;;;;;6169321;28;20042;-80
2021/08/27 06:39:00;;;;;;;11.20;5.47;;;;;;;;;;6169642;28;20678;-81
2021/08/27 06:42:03;;;;;;;7.60;4.95;;;;;;;;;;6182647;28;20050;-80
2021/08/27 06:45:05;;;;;;;8.35;3.80;;;;;;;;;;6181200;28;20049;-81
2021/08/27 06:48:07;;;;;;;9.97;5.20;;;;;;;;;;6181908;28;20053;-79
2021/08/27 06:51:12;;;;;;;9.48;4.25;;;;;;;;;;6164513;28;20050;-79
2021/08/27 06:54:14;;;;;;;8.15;4.18;;;;;;;;;;6166293;28;20050;-80
2021/08/27 06:57:15;;;;;;;6.18;3.38;;;;;;;;;;6181715;28;20463;-80
2021/08/27 07:00:17;;;;;;;9.55;4.00;;;;;;;;;;6189667;28;20042;-79
2021/08/27 07:03:19;;;;;;;7.68;3.65;;;;;;;;;;6179705;28;20045;-81
2021/08/27 07:06:21;;;;;;;8.32;3.80;;;;;;;;;;6178982;28;20518;-79
2021/08/27 07:09:23;;;;;;;6.57;3.45;;;;;;;;;;6163288;28;20054;-80
2021/08/27 07:12:25;;;;;;;10.15;3.70;;;;;;;;;;6168389;28;20046;-80
2021/08/27 07:15:27;;;;;;;6.18;3.50;;;;;;;;;;6155745;28;20042;-78
2021/08/27 07:18:28;;;;;;;6.53;3.40;;;;;;;;;;6163683;28;20062;-81
2021/08/27 07:21:30;;;;;;;8.38;3.58;;;;;;;;;;6165895;28;20046;-79
2021/08/27 07:24:32;;;;;;;5.32;3.25;;;;;;;;;;6160346;28;20382;-78
2021/08/27 07:27:33;;;;;;;6.40;3.35;;;;;;;;;;6161036;28;20042;-80
2021/08/27 07:30:36;;;;;;;5.97;3.60;;;;;;;;;;6169951;28;20049;-78
2021/08/27 07:33:37;;;;;;;5.25;2.80;;;;;;;;;;6174686;28;20042;-81
2021/08/27 07:36:40;;;;;;;5.53;2.70;;;;;;;;;;6152874;28;20518;-78
2021/08/27 07:39:41;;;;;;;6.63;2.93;;;;;;;;;;6174585;28;20073;-79
2021/08/27 07:42:43;;;;;;;4.90;3.20;;;;;;;;;;6183912;28;20585;-79
2021/08/27 07:45:46;;;;;;;3.80;2.92;;;;;;;;;;6162452;28;20170;-79
2021/08/27 07:48:47;;;;;;;3.63;3.07;;;;;;;;;;6169902;28;20054;-79
2021/08/27 07:51:51;;;;;;;4.15;2.58;;;;;;;;;;6158430;28;20039;-80
2021/08/27 07:54:52;;;;;;;5.45;2.90;;;;;;;;;;6172748;28;20084;-79
2021/08/27 07:57:54;;;;;;;5.55;2.90;;;;;;;;;;6171797;28;20042;-80
2021/08/27 08:00:57;;;;;;;5.55;2.60;;;;;;;;;;6185985;28;20043;-79
2021/08/27 08:04:01;;;;;;;5.53;2.65;;;;;;;;;;6185014;28;20049;-79
2021/08/27 08:07:03;;;;;;;4.72;2.80;;;;;;;;;;6179423;28;20054;-82
2021/08/27 08:10:05;;;;;;;3.75;2.40;;;;;;;;;;6183285;28;20069;-78
2021/08/27 08:13:07;;;;;;;4.25;2.60;;;;;;;;;;6185030;28;20070;-79
2021/08/27 08:16:09;;;;;;;4.20;2.30;;;;;;;;;;6166473;28;20073;-79
2021/08/27 08:19:11;;;;;;;3.85;2.40;;;;;;;;;;6172342;28;20045;-80
2021/08/27 08:22:12;;;;;;;4.30;2.13;;;;;;;;;;6174801;28;20074;-81
2021/08/27 08:25:15;;;;;;;3.53;2.45;;;;;;;;;;6171606;28;20431;-80
2021/08/27 08:28:16;;;;;;;6.15;2.50;;;;;;;;;;6171845;28;20050;-81
2021/08/27 08:31:20;;;;;;;3.88;2.20;;;;;;;;;;6170227;28;20046;-79
2021/08/27 08:34:22;;;;;;;3.17;2.00;;;;;;;;;;6172383;28;20162;-78
2021/08/27 08:37:24;;;;;;;8.00;2.10;;;;;;;;;;6177485;28;20048;-79
2021/08/27 08:40:25;;;;;;;3.83;2.00;;;;;;;;;;6176200;28;20133;-81
2021/08/27 08:43:29;;;;;;;4.10;1.90;;;;;;;;;;6177493;28;20583;-79
2021/08/27 08:46:31;;;;;;;3.67;1.88;;;;;;;;;;6190756;28;20050;-79
2021/08/27 08:49:36;;;;;;;2.60;1.90;;;;;;;;;;6190953;28;20754;-80
2021/08/27 08:52:40;;;;;;;3.95;1.80;;;;;;;;;;6164791;28;20066;-80
2021/08/27 08:55:42;;;;;;;3.20;1.80;;;;;;;;;;6170630;28;20057;-81
2021/08/27 08:58:44;;;;;;;4.15;2.20;;;;;;;;;;6184155;28;20042;-80
2021/08/27 09:01:46;;;;;;;3.05;2.28;;;;;;;;;;6185334;28;20050;-79
2021/08/27 09:04:48;;;;;;;5.68;2.03;;;;;;;;;;6173868;28;20046;-80
2021/08/27 09:07:50;;;;;;;5.20;2.05;;;;;;;;;;6186443;28;20511;-79
2021/08/27 09:10:51;;;;;;;2.88;1.80;;;;;;;;;;6187308;28;20057;-80
2021/08/27 09:13:57;;;;;;;3.10;2.03;;;;;;;;;;6172503;28;20054;-80
2021/08/27 09:17:07;;;;;;;2.72;2.00;;;;;;;;;;6165618;28;20519;-81
2021/08/27 09:20:11;;;;;;;3.03;1.88;;;;;;;;;;6175483;28;20034;-80
2021/08/27 09:23:18;;;;;;;4.68;1.75;;;;;;;;;;6166481;28;20047;-80
2021/08/27 09:26:36;;;;;;;4.70;1.90;;;;;;;;;;6192550;28;20041;-80
2021/08/27 09:29:40;;;;;;;2.67;2.05;;;;;;;;;;6189410;28;20034;-79
2021/08/27 09:32:41;;;;;;;2.42;1.73;;;;;;;;;;6192386;28;20042;-80
2021/08/27 09:35:55;;;;;;;3.50;1.80;;;;;;;;;;6189274;28;20061;-80
2021/08/27 09:39:02;;;;;;;2.92;1.98;;;;;;;;;;6187618;28;20057;-80
2021/08/27 09:42:04;;;;;;;3.72;2.20;;;;;;;;;;6190216;28;20049;-80
2021/08/27 09:45:06;;;;;;;5.00;2.40;;;;;;;;;;6175493;28;20049;-78
2021/08/27 09:48:10;;;;;;;4.38;2.03;;;;;;;;;;6187116;28;20096;-79
2021/08/27 09:51:11;;;;;;;4.40;2.40;;;;;;;;;;6178044;28;20043;-79
2021/08/27 09:54:28;;;;;;;3.03;2.28;;;;;;;;;;6171070;28;20050;-80
2021/08/27 09:57:29;;;;;;;8.15;2.90;;;;;;;;;;6188516;28;20046;-76
2021/08/27 10:00:43;;;;;;;3.83;2.00;;;;;;;;;;6172775;28;20049;-79
2021/08/27 10:03:45;;;;;;;4.43;2.30;;;;;;;;;;6166653;28;20062;-78
2021/08/27 10:06:46;;;;;;;2.53;2.33;;;;;;;;;;6187008;28;20144;-78
2021/08/27 10:09:48;;;;;;;3.10;1.90;;;;;;;;;;6189377;28;20047;-78
2021/08/27 10:12:50;;;;;;;4.72;2.45;;;;;;;;;;6188054;28;20038;-78
2021/08/27 10:15:53;;;;;;;5.32;2.58;;;;;;;;;;6186913;28;20038;-80
2021/08/27 10:18:55;;;;;;;3.47;2.67;;;;;;;;;;6186621;28;20108;-80
2021/08/27 10:21:58;;;;;;;4.20;2.83;;;;;;;;;;6178902;28;20050;-80
2021/08/27 10:25:04;;;;;;;4.82;2.78;;;;;;;;;;6147781;28;20050;-79
2021/08/27 10:28:08;;;;;;;4.03;3.00;;;;;;;;;;6165444;28;20050;-77
2021/08/27 10:31:10;;;;;;;4.03;3.15;;;;;;;;;;6186002;28;20665;-78
2021/08/27 10:34:13;;;;;;;6.47;3.17;;;;;;;;;;6185658;28;20445;-79
2021/08/27 10:37:48;;;;;;;5.90;3.33;;;;;;;;;;6177721;28;20096;-79
2021/08/27 10:41:07;;;;;;;5.50;2.75;;;;;;;;;;6161044;28;20054;-78
2021/08/27 10:44:09;;;;;;;3.72;2.65;;;;;;;;;;6163753;28;20047;-80
2021/08/27 10:47:30;;;;;;;4.05;2.97;;;;;;;;;;6176197;28;20070;-78
2021/08/27 10:50:32;;;;;;;3.90;3.00;;;;;;;;;;6173412;28;20562;-79
2021/08/27 10:53:35;;;;;;;4.78;3.10;;;;;;;;;;6161526;28;20539;-79
2021/08/27 10:56:51;;;;;;;6.55;2.85;;;;;;;;;;6183296;28;20046;-79
2021/08/27 10:59:59;;;;;;;8.18;3.42;;;;;;;;;;6173043;28;20054;-77
2021/08/27 11:03:03;;;;;;;4.80;3.03;;;;;;;;;;6169166;28;20202;-79
2021/08/27 11:06:14;;;;;;;5.78;2.95;;;;;;;;;;6160250;28;20238;-81
2021/08/27 11:09:19;;;;;;;4.47;3.03;;;;;;;;;;6162227;28;20048;-78
2021/08/27 11:12:31;;;;;;;5.15;3.03;;;;;;;;;;6171437;28;20039;-79
2021/08/27 11:15:32;;;;;;;4.70;2.97;;;;;;;;;;6176631;28;20047;-78
2021/08/27 11:18:34;;;;;;;5.67;3.43;;;;;;;;;;6172520;28;20041;-79
2021/08/27 11:21:39;;;;;;;4.07;3.10;;;;;;;;;;6183347;28;20411;-77
2021/08/27 11:24:42;;;;;;;8.45;3.80;;;;;;;;;;6166220;28;20050;-80
2021/08/27 11:28:02;;;;;;;;;;;;;;;;;;6163765;28;20043;-77
2021/08/27 11:31:05;;;;;;;6.35;3.53;;;;;;;;;;6183867;28;19925;-79
2021/08/27 11:34:07;;;;;;;6.55;4.00;;;;;;;;;;6202706;28;20665;-79
2021/08/27 11:37:09;;;;;;;5.03;3.83;;;;;;;;;;6158712;28;20059;-81
2021/08/27 11:40:13;;;;;;;7.57;4.20;;;;;;;;;;6159354;28;20043;-80
2021/08/27 11:43:15;;;;;;;6.35;4.03;;;;;;;;;;6158151;28;20150;-81
2021/08/27 11:46:22;;;;;;;6.55;4.18;;;;;;;;;;6166052;28;20050;-80
2021/08/27 11:49:27;;;;;;;6.03;4.43;;;;;;;;;;6166574;28;20404;-80
2021/08/27 11:52:29;;;;;;;7.93;4.55;;;;;;;;;;6185204;28;20152;-80
2021/08/27 11:55:39;;;;;;;9.50;3.90;;;;;;;;;;6181143;28;20487;-80
2021/08/27 11:58:45;;;;;;;8.07;5.07;;;;;;;;;;6174001;28;20564;-80
2021/08/27 12:01:48;;;;;;;8.73;4.68;;;;;;;;;;6158980;28;20050;-81
2021/08/27 12:04:59;;;;;;;7.75;4.70;;;;;;;;;;6159878;28;20094;-80
2021/08/27 12:08:06;;;;;;;7.05;5.20;;;;;;;;;;6178029;28;20049;-79
2021/08/27 12:11:07;;;;;;;5.95;4.47;;;;;;;;;;6164876;28;20050;-81
2021/08/27 12:14:09;;;;;;;6.95;4.80;;;;;;;;;;6165023;28;20039;-80
2021/08/27 12:17:16;;;;;;;7.25;4.25;;;;;;;;;;6166785;28;20038;-80
2021/08/27 12:20:19;;;;;;;6.25;4.63;;;;;;;;;;6166511;28;20030;-81
2021/08/27 12:23:22;;;;;;;6.65;4.28;;;;;;;;;;6170971;28;20416;-80
2021/08/27 12:26:25;;;;;;;6.53;4.25;;;;;;;;;;6186664;28;20110;-82
2021/08/27 12:29:26;;;;;;;5.38;4.63;;;;;;;;;;6179082;28;20117;-79
2021/08/27 12:32:47;;;;;;;6.70;4.53;;;;;;;;;;6166634;28;20125;-80
2021/08/27 12:36:11;;;;;;;5.70;4.50;;;;;;;;;;6173243;28;20185;-80
2021/08/27 12:39:21;;;;;;;7.55;4.43;;;;;;;;;;6137198;28;20626;-79
2021/08/27 12:42:28;;;;;;;6.78;4.50;;;;;;;;;;6118022;28;20044;-79
2021/08/27 12:45:51;;;;;;;7.15;4.93;;;;;;;;;;6190273;28;20038;-80
2021/08/27 12:49:14;;;;;;;6.90;5.43;;;;;;;;;;6190437;28;20407;-81
2021/08/27 12:52:17;;;;;;;8.10;5.20;;;;;;;;;;6166916;28;20047;-83
2021/08/27 12:55:20;;;;;;;8.15;5.38;;;;;;;;;;6180544;28;20038;-79
2021/08/27 12:58:32;;;;;;;6.88;4.85;;;;;;;;;;6180702;28;20053;-81
2021/08/27 13:01:33;;;;;;;5.63;4.55;;;;;;;;;;6164863;28;20038;-79
2021/08/27 13:04:42;;;;;;;7.13;4.60;;;;;;;;;;6165455;28;20133;-81
2021/08/27 13:07:44;;;;;;;4.93;4.10;;;;;;;;;;6165634;28;20053;-80
2021/08/27 13:11:05;;;;;;;6.00;4.05;;;;;;;;;;6182116;28;20096;-79
2021/08/27 13:14:30;;;;;;;6.38;3.45;;;;;;;;;;6177615;28;20068;-79
2021/08/27 13:17:32;;;;;;;4.82;3.17;;;;;;;;;;6174798;28;20043;-80
2021/08/27 13:20:36;;;;;;;3.47;3.17;;;;;;;;;;6176787;28;20046;-80
2021/08/27 13:23:37;;;;;;;4.65;3.17;;;;;;;;;;6171732;28;20194;-79
2021/08/27 13:26:40;;;;;;;5.93;3.28;;;;;;;;;;6181275;28;20105;-80
2021/08/27 13:29:41;;;;;;;4.03;2.60;;;;;;;;;;6185750;28;20038;-81
2021/08/27 13:32:53;;;;;;;3.25;2.10;;;;;;;;;;6167016;28;20047;-80
2021/08/27 13:35:55;;;;;;;2.83;2.00;;;;;;;;;;6178845;28;20599;-80
2021/08/27 13:38:56;;;;;;;2.17;1.60;;;;;;;;;;6187212;28;20510;-82
2021/08/27 13:41:58;;;;;;;1.98;1.30;;;;;;;;;;6174833;28;20488;-79
2021/08/27 13:45:00;;;;;;;2.13;1.10;;;;;;;;;;6176810;28;20062;-80
2021/08/27 13:48:02;;;;;;;1.20;0.90;;;;;;;;;;6205145;28;20046;-78
2021/08/27 13:51:04;;;;;;;1.73;1.20;;;;;;;;;;6192332;28;20046;-79
2021/08/27 13:54:05;;;;;;;1.20;0.65;;;;;;;;;;6188955;28;20389;-81
2021/08/27 13:57:07;;;;;;;0.93;0.75;;;;;;;;;;6172888;28;20042;-79
2021/08/27 14:00:11;;;;;;;1.35;0.80;;;;;;;;;;6187699;28;20491;-80
2021/08/27 14:03:14;;;;;;;1.10;0.70;;;;;;;;;;6193484;28;20061;-82
2021/08/27 14:06:15;;;;;;;1.92;0.73;;;;;;;;;;6191657;28;20042;-80
2021/08/27 14:09:17;;;;;;;3.95;1.10;;;;;;;;;;6194950;28;20177;-80
2021/08/27 14:12:19;;;;;;;1.92;1.10;;;;;;;;;;6198859;28;20391;-81
2021/08/27 14:15:20;;;;;;;2.00;1.20;;;;;;;;;;6173482;28;20050;-80
2021/08/27 14:18:22;;;;;;;1.95;1.13;;;;;;;;;;6171767;28;20050;-80
2021/08/27 14:21:23;;;;;;;2.80;1.02;;;;;;;;;;6190410;28;20057;-82
2021/08/27 14:24:25;;;;;;;2.17;0.93;;;;;;;;;;6192850;28;20046;-80
2021/08/27 14:27:26;;;;;;;2.92;1.20;;;;;;;;;;6194551;28;20044;-80
2021/08/27 14:30:28;;;;;;;2.10;0.88;;;;;;;;;;6174532;28;20051;-82
2021/08/27 14:33:32;;;;;;;1.50;0.90;;;;;;;;;;6170742;28;20170;-82
2021/08/27 14:36:33;;;;;;;2.85;1.10;;;;;;;;;;6180409;28;20516;-80
2021/08/27 14:39:35;;;;;;;2.08;1.30;;;;;;;;;;6170318;28;20047;-82
2021/08/27 14:42:37;;;;;;;1.35;1.00;;;;;;;;;;6169200;28;20042;-83
2021/08/27 14:45:38;;;;;;;2.63;0.90;;;;;;;;;;6173033;28;20042;-79
2021/08/27 14:48:40;;;;;;;2.28;0.80;;;;;;;;;;6191640;28;20045;-82
2021/08/27 14:51:41;;;;;;;1.60;0.93;;;;;;;;;;6193606;28;20479;-82
2021/08/27 14:54:43;;;;;;;1.25;1.05;;;;;;;;;;6193165;28;20068;-81
2021/08/27 14:57:46;;;;;;;3.88;1.00;;;;;;;;;;6192741;28;20050;-81
2021/08/27 15:00:48;;;;;;;1.48;0.95;;;;;;;;;;6192835;28;20050;-81
2021/08/27 15:03:51;;;;;;;3.80;1.10;;;;;;;;;;6193470;28;20401;-80
2021/08/27 15:06:53;;;;;;;2.05;1.08;;;;;;;;;;6170229;28;20528;-80
2021/08/27 15:09:55;;;;;;;2.00;0.93;;;;;;;;;;6169608;28;20098;-80
2021/08/27 15:12:56;;;;;;;4.85;1.13;;;;;;;;;;6170861;28;20094;-83
2021/08/27 15:15:58;;;;;;;1.27;1.13;;;;;;;;;;6163787;28;20042;-82
2021/08/27 15:19:00;;;;;;;2.53;1.00;;;;;;;;;;6171114;28;20117;-81
2021/08/27 15:22:01;;;;;;;2.15;1.13;;;;;;;;;;6195648;28;20045;-83
2021/08/27 15:25:03;;;;;;;2.90;0.85;;;;;;;;;;6194686;28;20050;-82
2021/08/27 15:28:05;;;;;;;2.90;1.00;;;;;;;;;;6183447;28;20059;-81
2021/08/27 15:31:06;;;;;;;1.58;0.90;;;;;;;;;;6172567;28;20050;-82
2021/08/27 15:34:08;;;;;;;2.47;1.10;;;;;;;;;;6170715;28;20035;-81
2021/08/27 15:37:11;;;;;;;4.22;1.10;;;;;;;;;;6163981;28;20377;-80
2021/08/27 15:40:13;;;;;;;;;;;;;;;;;;6165590;28;20065;-82
2021/08/27 15:43:14;;;;;;;2.30;1.20;;;;;;;;;;6167277;28;19928;-82
2021/08/27 15:46:16;;;;;;;2.13;1.25;;;;;;;;;;6185239;28;20061;-79
2021/08/27 15:49:20;;;;;;;2.97;1.05;;;;;;;;;;6187443;28;20148;-80
2021/08/27 15:52:22;;;;;;;3.45;1.30;;;;;;;;;;6171812;28;20042;-83
2021/08/27 15:55:23;;;;;;;2.75;1.27;;;;;;;;;;6175351;28;20065;-79
2021/08/27 15:58:25;;;;;;;2.10;1.20;;;;;;;;;;6179736;28;20054;-81
2021/08/27 16:01:27;;;;;;;2.00;1.50;;;;;;;;;;6188251;28;20042;-79
2021/08/27 16:04:29;;;;;;;4.47;1.50;;;;;;;;;;6205567;28;20133;-79
2021/08/27 16:07:30;;;;;;;2.90;1.67;;;;;;;;;;6192824;28;20495;-79
2021/08/27 16:10:34;;;;;;;3.88;1.50;;;;;;;;;;6191555;28;20049;-82
2021/08/27 16:13:38;;;;;;;2.58;1.50;;;;;;;;;;6175190;28;20042;-79
2021/08/27 16:16:40;;;;;;;1.80;1.27;;;;;;;;;;6166116;28;20047;-79
2021/08/27 16:19:43;;;;;;;3.15;1.20;;;;;;;;;;6166413;28;20047;-79
2021/08/27 16:22:44;;;;;;;;;;;;;;;;;;6188006;28;20416;-81
2021/08/27 16:25:46;;;;;;;2.50;1.30;;;;;;;;;;6190759;28;20409;-79
2021/08/27 16:28:48;;;;;;;2.90;1.40;;;;;;;;;;6185871;28;20492;-79
2021/08/27 16:31:50;;;;;;;4.13;1.42;;;;;;;;;;6182481;28;20046;-79
2021/08/27 16:34:51;;;;;;;4.57;1.48;;;;;;;;;;6180928;28;20046;-82
2021/08/27 16:37:53;;;;;;;3.28;1.63;;;;;;;;;;6189795;28;20043;-79
2021/08/27 16:40:55;;;;;;;2.50;1.80;;;;;;;;;;6186003;28;20046;-78
2021/08/27 16:43:58;;;;;;;4.20;1.35;;;;;;;;;;6178701;28;20045;-79
2021/08/27 16:47:00;;;;;;;3.33;1.52;;;;;;;;;;6179164;28;20046;-80
2021/08/27 16:50:02;;;;;;;2.33;1.50;;;;;;;;;;6184179;28;20042;-79
2021/08/27 16:53:03;;;;;;;2.83;2.15;;;;;;;;;;6204806;28;20046;-79
2021/08/27 16:56:05;;;;;;;4.00;1.90;;;;;;;;;;6182355;28;20052;-79
2021/08/27 16:59:07;;;;;;;2.72;2.10;;;;;;;;;;6158030;28;20526;-82
2021/08/27 17:02:08;;;;;;;3.50;2.00;;;;;;;;;;6155429;28;20050;-79
2021/08/27 17:05:15;;;;;;;3.85;1.77;;;;;;;;;;6183762;28;20499;-79
2021/08/27 17:08:21;;;;;;;2.53;1.60;;;;;;;;;;6190739;28;20043;-78
2021/08/27 17:11:22;;;;;;;2.38;1.55;;;;;;;;;;6196051;28;20048;-77
2021/08/27 17:14:24;;;;;;;2.20;1.40;;;;;;;;;;6191702;28;20063;-78
2021/08/27 17:17:26;;;;;;;2.47;1.35;;;;;;;;;;6173117;28;20043;-77
2021/08/27 17:20:27;;;;;;;3.53;1.60;;;;;;;;;;6184197;28;20411;-77
2021/08/27 17:23:29;;;;;;;2.85;1.70;;;;;;;;;;6203103;28;20101;-77
2021/08/27 17:26:30;;;;;;;2.65;1.55;;;;;;;;;;6223717;28;20046;-79
2021/08/27 17:29:32;;;;;;;2.83;1.60;;;;;;;;;;6206358;28;20031;-78
2021/08/27 17:32:34;;;;;;;3.10;1.70;;;;;;;;;;6196386;28;20051;-78
2021/08/27 17:35:35;;;;;;;2.75;1.55;;;;;;;;;;6188764;28;20046;-78
2021/08/27 17:38:37;;;;;;;4.57;1.70;;;;;;;;;;6177105;28;20034;-78
2021/08/27 17:41:39;;;;;;;3.97;1.70;;;;;;;;;;6191153;28;20038;-79
2021/08/27 17:44:40;;;;;;;4.13;1.80;;;;;;;;;;6196846;28;20038;-79
2021/08/27 17:47:42;;;;;;;3.28;1.83;;;;;;;;;;6207415;28;20064;-78
2021/08/27 17:50:43;;;;;;;2.53;1.50;;;;;;;;;;6193305;28;20046;-78
2021/08/27 17:53:45;;;;;;;4.30;1.83;;;;;;;;;;6195612;28;20408;-76
2021/08/27 17:56:47;;;;;;;3.78;1.95;;;;;;;;;;6193956;28;20124;-78
2021/08/27 17:59:50;;;;;;;5.15;1.90;;;;;;;;;;6171896;28;20050;-77
2021/08/27 18:02:52;;;;;;;4.45;2.15;;;;;;;;;;6190964;28;20539;-76
2021/08/27 18:05:53;;;;;;;4.20;2.42;;;;;;;;;;6195841;28;20129;-78
2021/08/27 18:08:55;;;;;;;3.58;2.03;;;;;;;;;;6193242;28;20050;-77
2021/08/27 18:11:56;;;;;;;5.03;2.65;;;;;;;;;;6191988;28;20129;-78
2021/08/27 18:14:58;;;;;;;4.63;3.15;;;;;;;;;;6189262;28;20053;-76
2021/08/27 18:18:01;;;;;;;3.72;2.70;;;;;;;;;;6189471;28;20039;-78
2021/08/27 18:21:03;;;;;;;2.92;2.00;;;;;;;;;;6176070;28;20050;-77